Portada
METAR-TAF:

METAR-TAF

Aeroports :

Aeroport de Sabadell

Sabadell, Espanya

latitud: 41-31N, longitud: 002-06E, altitud: 250 m

Observació

L'informe es va fer fa 21 minuts, a les 06:30 UTC
Vent 4 kt del Oest/Nord-Oest
Temperatura 6°C
Humitat 93%
Pressió 1016 hPa
Visibilitat 10 km o més
sense núvols per sota de 1500 mi sense presència de cumulonimbus.

METAR: LELL 290630Z 29004KT CAVOK 06/05 Q1016

Hora: 08:51 (06:51 UTC)

Pronòstic

L'informe es va fer fa 4 hores i 51 minuts, a les 02:00 UTC
Pronòstic vàlid del 29 a les 03 UTC al 30 a les 03 UTC
Vent 4 kt amb direcció variable
Visibilitat 10 km o més
Escasses núvols a una alçada de 3000 ft
Evolucionant progressivament
l' 29 a les 11 UTC al 29 a les 13 UTC
Vent 9 kt del Est/Sud-Est
Evolucionant progressivament
l' 29 a les 18 UTC al 29 a les 20 UTC
Vent 5 kt del Nord-Est

TAF: LELL 290200Z 2903/3003 VRB04KT 9999 FEW030 TX21/2913Z TN07/2906Z BECMG 2911/2913 12009KT BECMG 2918/2920 05005KT

Observacions i pronòstics meteorològics de més de 4000 aeroports (METAR i TAF).

Les estacions disponibles són els punts grocs i vermells al mapa.

Posi el ratolí al punt desitjat per veure el nom de l'estació.

Feu clic per veure les observacions i els pronòstics meteorològics.

Per canviar el mapa: feu clic els botons verds amb una creu de color negre per apropar; al botó verd amb un guió per allunyar la imatge; o en les fletxes verdes per a mapes adjacents.


METAR-TAF: